KGGW/GGW METAR and TAF weather

Enter ICAO airport designator
Station Type Date Time Source
KGGW METAR 2019/08/19 11:53 UTC NOAA

KGGW 191153Z AUTO 10012KT 10SM CLR 14/08 A2980 RMK AO2 SLP083 T01440078 10172 20144 55000 $


Station Type Date Time Source
KGGW Decoded METAR 2019/08/19 11:53 UTC NOAA

Station name not available
Aug 19, 2019 - 07:53 AM EDT / 2019.08.19 1153 UTC
Wind: from the E (100 degrees) at 14 MPH (12 KT):0
Visibility: 10 mile(s):0
Sky conditions: clear
Temperature: 57.9 F (14.4 C)
Dew Point: 46.0 F (7.8 C)
Relative Humidity: 64%
Pressure (altimeter): 29.8 in. Hg (1009 hPa)
Pressure tendency: 0.00 inches (0.0 hPa) lower than three hours ago
ob: KGGW 191153Z AUTO 10012KT 10SM CLR 14/08 A2980 RMK AO2 SLP083 T01440078 10172 20144 55000
cycle: 12

Station Type Date Time Source
KGGW TAF 2019/08/19 12:22 UTC NOAA

TAF KGGW 191120Z 1912/2012 10010KT P6SM SKC
FM191900 27011KT P6SM SKC
FM200300 31008KT P6SM SKC

Example: see airport list